Time;durP1;ratioP1;P1;durP2;ratioP2;P2;SDS_P1;SDS_P2;PMS_P1;PMS_P2;Temp;Humidity;BMP_temperature;BMP_pressure;BME280_temperature;BME280_humidity;BME280_pressure;Samples;Min_cycle;Max_cycle;Signal;HPM_P1;HPM_P2
2022/08/04 00:01:43;;;;;;;1.75;1.65;;;;;;;;;;5027582;28;20047;-71
2022/08/04 00:04:23;;;;;;;2.23;1.63;;;;;;;;;;5028283;28;20498;-72
2022/08/04 00:07:02;;;;;;;2.25;1.55;;;;;;;;;;5028095;28;20376;-71
2022/08/04 00:09:54;;;;;;;3.08;1.70;;;;;;;;;;5027825;28;20034;-69
2022/08/04 00:12:23;;;;;;;2.63;1.67;;;;;;;;;;5028128;28;20029;-72
2022/08/04 00:14:52;;;;;;;1.83;1.70;;;;;;;;;;5028362;28;20030;-71
2022/08/04 00:17:20;;;;;;;3.38;2.08;;;;;;;;;;5028047;28;20026;-71
2022/08/04 00:19:54;;;;;;;2.95;1.75;;;;;;;;;;5027765;28;20387;-71
2022/08/04 00:22:25;;;;;;;1.85;1.67;;;;;;;;;;5027958;28;20182;-71
2022/08/04 00:24:50;;;;;;;3.95;1.83;;;;;;;;;;5027952;28;20029;-71
2022/08/04 00:27:16;;;;;;;1.65;1.45;;;;;;;;;;5027944;28;20103;-71
2022/08/04 00:29:42;;;;;;;1.98;1.75;;;;;;;;;;5027522;28;20044;-72
2022/08/04 00:32:08;;;;;;;2.70;1.80;;;;;;;;;;5028092;28;20029;-71
2022/08/04 00:34:34;;;;;;;4.72;1.90;;;;;;;;;;5027856;28;20025;-71
2022/08/04 00:36:59;;;;;;;2.92;1.60;;;;;;;;;;5027665;28;20066;-71
2022/08/04 00:39:25;;;;;;;2.38;1.67;;;;;;;;;;5031349;28;20065;-70
2022/08/04 00:42:19;;;;;;;2.78;1.60;;;;;;;;;;5031431;28;20451;-71
2022/08/04 00:45:02;;;;;;;3.45;1.80;;;;;;;;;;5031654;28;20033;-71
2022/08/04 00:47:46;;;;;;;;;;;;;;;;;;5032314;28;20059;-72
2022/08/04 00:50:40;;;;;;;1.88;1.77;;;;;;;;;;5031399;28;20300;-71
2022/08/04 00:53:43;;;;;;;1.92;1.70;;;;;;;;;;5028025;28;20049;-72
2022/08/04 00:56:11;;;;;;;4.18;1.80;;;;;;;;;;4912422;29;20496;-71
2022/08/04 00:59:02;;;;;;;3.03;1.75;;;;;;;;;;5007809;28;20037;-70
2022/08/04 01:01:52;;;;;;;3.20;1.80;;;;;;;;;;5031347;28;20241;-72
2022/08/04 01:04:45;;;;;;;4.13;1.90;;;;;;;;;;5031408;28;20097;-71
2022/08/04 01:07:45;;;;;;;3.42;1.70;;;;;;;;;;5031386;28;20086;-71
2022/08/04 01:10:22;;;;;;;2.85;1.73;;;;;;;;;;5030788;28;20021;-71
2022/08/04 01:12:58;;;;;;;2.75;1.67;;;;;;;;;;5031097;28;20064;-71
2022/08/04 01:15:26;;;;;;;2.97;2.00;;;;;;;;;;5031026;28;20053;-71
2022/08/04 01:18:00;;;;;;;2.30;1.70;;;;;;;;;;5031105;28;20039;-71
2022/08/04 01:20:33;;;;;;;4.95;1.50;;;;;;;;;;5030784;28;20026;-72
2022/08/04 01:23:28;;;;;;;4.53;1.92;;;;;;;;;;5031246;28;20026;-72
2022/08/04 01:26:14;;;;;;;2.83;1.83;;;;;;;;;;5030870;28;20547;-71
2022/08/04 01:29:03;;;;;;;3.35;1.73;;;;;;;;;;5031081;28;20041;-71
2022/08/04 01:31:55;;;;;;;4.07;1.83;;;;;;;;;;5030623;28;20092;-71
2022/08/04 01:34:21;;;;;;;3.00;1.95;;;;;;;;;;4976557;28;20112;-71
2022/08/04 01:36:59;;;;;;;2.17;1.90;;;;;;;;;;5030743;28;20030;-71
2022/08/04 01:39:41;;;;;;;3.05;1.90;;;;;;;;;;5030690;28;20468;-69
2022/08/04 01:42:08;;;;;;;;;;;;;;;;;;5031584;28;20037;-72
2022/08/04 01:44:35;;;;;;;2.63;1.83;;;;;;;;;;5030950;28;19919;-72
2022/08/04 01:47:02;;;;;;;4.03;1.90;;;;;;;;;;5030837;28;20037;-71
2022/08/04 01:49:31;;;;;;;3.22;1.80;;;;;;;;;;5030132;28;20037;-71
2022/08/04 01:51:57;;;;;;;2.80;1.75;;;;;;;;;;5030291;28;20061;-71
2022/08/04 01:54:24;;;;;;;2.80;1.70;;;;;;;;;;5030519;28;20537;-72
2022/08/04 01:56:49;;;;;;;3.42;2.17;;;;;;;;;;5030492;28;20404;-71
2022/08/04 01:59:18;;;;;;;4.10;1.77;;;;;;;;;;5030479;28;20079;-71
2022/08/04 02:01:43;;;;;;;3.55;1.60;;;;;;;;;;5029951;28;20120;-70
2022/08/04 02:04:17;;;;;;;3.58;1.80;;;;;;;;;;5030265;28;20105;-72
2022/08/04 02:06:57;;;;;;;3.28;1.70;;;;;;;;;;5030252;28;20029;-71
2022/08/04 02:09:36;;;;;;;4.82;2.05;;;;;;;;;;5030184;28;20036;-71
2022/08/04 02:12:12;;;;;;;4.00;2.10;;;;;;;;;;5030247;28;20403;-71
2022/08/04 02:14:54;;;;;;;4.45;2.20;;;;;;;;;;5030273;28;20026;-71
2022/08/04 02:17:39;;;;;;;4.20;2.00;;;;;;;;;;5030337;28;20088;-71
2022/08/04 02:20:08;;;;;;;3.05;1.90;;;;;;;;;;5030087;28;20108;-72
2022/08/04 02:22:39;;;;;;;3.10;1.98;;;;;;;;;;5030024;28;20434;-72
2022/08/04 02:25:08;;;;;;;5.63;2.08;;;;;;;;;;5030370;28;20022;-72
2022/08/04 02:28:02;;;;;;;5.20;2.08;;;;;;;;;;5029916;28;20033;-71
2022/08/04 02:30:33;;;;;;;4.18;2.17;;;;;;;;;;5029472;28;20025;-72
2022/08/04 02:33:02;;;;;;;3.22;2.17;;;;;;;;;;5029739;28;20541;-71
2022/08/04 02:35:29;;;;;;;2.50;2.05;;;;;;;;;;5029587;28;20422;-71
2022/08/04 02:38:10;;;;;;;4.13;2.05;;;;;;;;;;5029986;28;20029;-71
2022/08/04 02:40:35;;;;;;;4.07;2.00;;;;;;;;;;5029755;28;20032;-72
2022/08/04 02:43:02;;;;;;;2.88;2.05;;;;;;;;;;5029589;28;20064;-71
2022/08/04 02:45:30;;;;;;;5.22;2.22;;;;;;;;;;5029483;28;20029;-71
2022/08/04 02:47:58;;;;;;;3.50;2.30;;;;;;;;;;5029338;28;20171;-71
2022/08/04 02:50:25;;;;;;;2.05;1.75;;;;;;;;;;5028976;28;20116;-72
2022/08/04 02:52:51;;;;;;;5.65;2.00;;;;;;;;;;5029352;28;20034;-72
2022/08/04 02:55:18;;;;;;;3.65;1.80;;;;;;;;;;5029347;28;20033;-71
2022/08/04 02:57:46;;;;;;;5.18;2.00;;;;;;;;;;5029378;28;20029;-71
2022/08/04 03:00:13;;;;;;;5.80;2.22;;;;;;;;;;5028363;28;20017;-70
2022/08/04 03:03:12;;;;;;;2.40;2.00;;;;;;;;;;5028850;28;20064;-71
2022/08/04 03:05:58;;;;;;;4.88;2.20;;;;;;;;;;5013248;28;20122;-71
2022/08/04 03:08:48;;;;;;;2.00;1.80;;;;;;;;;;5029168;28;20021;-71
2022/08/04 03:11:50;;;;;;;2.30;1.80;;;;;;;;;;5028711;28;20320;-72
2022/08/04 03:14:15;;;;;;;6.43;2.10;;;;;;;;;;5028884;28;20376;-71
2022/08/04 03:17:19;;;;;;;3.63;2.00;;;;;;;;;;5028817;28;20071;-72
2022/08/04 03:19:59;;;;;;;3.47;2.00;;;;;;;;;;5028600;28;20733;-71
2022/08/04 03:22:57;;;;;;;4.10;2.30;;;;;;;;;;5028851;28;20406;-71
2022/08/04 03:25:36;;;;;;;4.80;2.00;;;;;;;;;;5028672;28;20025;-71
2022/08/04 03:28:31;;;;;;;6.50;2.20;;;;;;;;;;5028722;28;20025;-72
2022/08/04 03:31:36;;;;;;;3.78;2.40;;;;;;;;;;5028263;28;20471;-71
2022/08/04 03:34:20;;;;;;;2.67;2.00;;;;;;;;;;5008066;28;20133;-71
2022/08/04 03:37:22;;;;;;;3.33;2.10;;;;;;;;;;5028681;28;20037;-71
2022/08/04 03:40:31;;;;;;;3.78;1.92;;;;;;;;;;5028269;28;20701;-71
2022/08/04 03:43:02;;;;;;;4.50;2.38;;;;;;;;;;5028535;28;20197;-72
2022/08/04 03:45:55;;;;;;;3.25;2.20;;;;;;;;;;5028584;28;20029;-71
2022/08/04 03:48:52;;;;;;;3.40;2.05;;;;;;;;;;5028367;28;20021;-72
2022/08/04 03:55:09;;;;;;;2.80;2.47;;;;;;;;;;5028518;28;20505;-72
2022/08/04 03:58:16;;;;;;;3.50;2.33;;;;;;;;;;5028622;28;20084;-71
2022/08/04 04:01:06;;;;;;;2.60;2.13;;;;;;;;;;5027885;28;20033;-71
2022/08/04 04:03:43;;;;;;;6.35;2.40;;;;;;;;;;5028340;28;20032;-70
2022/08/04 04:06:36;;;;;;;6.38;3.40;;;;;;;;;;5028170;28;20021;-71
2022/08/04 04:09:30;;;;;;;3.00;2.40;;;;;;;;;;5028374;28;20060;-71
2022/08/04 04:12:33;;;;;;;6.78;2.08;;;;;;;;;;5029237;28;20037;-71
2022/08/04 04:15:21;;;;;;;4.50;1.95;;;;;;;;;;5032243;28;20116;-71
2022/08/04 04:18:08;;;;;;;4.55;2.08;;;;;;;;;;5032173;28;20021;-71
2022/08/04 04:20:39;;;;;;;5.00;2.25;;;;;;;;;;5031878;28;20025;-71
2022/08/04 04:23:14;;;;;;;4.75;2.20;;;;;;;;;;5032155;28;20033;-71
2022/08/04 04:25:42;;;;;;;4.15;2.42;;;;;;;;;;5032113;28;20021;-71
2022/08/04 04:28:31;;;;;;;4.20;2.10;;;;;;;;;;5032402;28;20032;-71
2022/08/04 04:31:14;;;;;;;3.22;2.20;;;;;;;;;;5031982;28;20036;-71
2022/08/04 04:33:53;;;;;;;6.78;2.20;;;;;;;;;;5032108;28;20189;-72
2022/08/04 04:36:47;;;;;;;4.50;2.40;;;;;;;;;;5031939;28;20083;-71
2022/08/04 04:39:17;;;;;;;3.53;2.45;;;;;;;;;;5031969;28;20113;-71
2022/08/04 04:41:45;;;;;;;3.78;2.55;;;;;;;;;;5031511;28;20462;-71
2022/08/04 04:44:24;;;;;;;3.33;2.40;;;;;;;;;;5031706;28;20026;-71
2022/08/04 04:46:53;;;;;;;3.17;2.38;;;;;;;;;;5031653;28;20029;-72
2022/08/04 04:49:28;;;;;;;2.72;2.30;;;;;;;;;;5031602;28;20060;-72
2022/08/04 04:52:08;;;;;;;4.10;2.40;;;;;;;;;;5031710;28;20033;-70
2022/08/04 04:54:57;;;;;;;5.80;2.40;;;;;;;;;;5031613;28;20063;-70
2022/08/04 04:57:26;;;;;;;4.63;2.40;;;;;;;;;;5031863;28;20034;-71
2022/08/04 04:59:58;;;;;;;5.60;2.08;;;;;;;;;;5031325;28;20104;-72
2022/08/04 05:03:14;;;;;;;4.70;2.58;;;;;;;;;;5053145;22;20046;-69
2022/08/04 05:05:52;;;;;;;5.65;2.60;;;;;;;;;;4950379;29;20095;-69
2022/08/04 05:08:39;;;;;;;4.97;2.92;;;;;;;;;;5029486;28;20041;-69
2022/08/04 05:11:44;;;;;;;7.38;2.80;;;;;;;;;;5031049;28;20487;-69
2022/08/04 05:14:28;;;;;;;7.38;2.83;;;;;;;;;;5031162;28;20049;-69
2022/08/04 05:17:25;;;;;;;6.85;2.90;;;;;;;;;;5031168;28;20477;-69
2022/08/04 05:19:57;;;;;;;10.93;2.45;;;;;;;;;;5023396;28;20133;-69
2022/08/04 05:22:34;;;;;;;9.95;2.47;;;;;;;;;;5011214;28;20029;-69
2022/08/04 05:25:11;;;;;;;9.02;3.03;;;;;;;;;;5010998;28;20045;-69
2022/08/04 05:27:45;;;;;;;7.80;2.80;;;;;;;;;;5011210;28;20025;-69
2022/08/04 05:30:11;;;;;;;5.57;2.70;;;;;;;;;;5010986;28;20476;-69
2022/08/04 05:32:43;;;;;;;4.00;2.60;;;;;;;;;;5010846;28;20036;-69
2022/08/04 05:35:15;;;;;;;3.65;2.67;;;;;;;;;;5011095;28;20026;-69
2022/08/04 05:37:42;;;;;;;4.13;2.90;;;;;;;;;;5010968;28;20444;-69
2022/08/04 05:40:09;;;;;;;6.65;3.30;;;;;;;;;;5010627;28;20160;-69
2022/08/04 05:42:37;;;;;;;6.22;3.40;;;;;;;;;;5027703;28;20029;-69
2022/08/04 05:45:03;;;;;;;6.13;3.25;;;;;;;;;;5019631;28;20034;-69
2022/08/04 05:47:31;;;;;;;8.45;3.20;;;;;;;;;;5010980;28;20304;-69
2022/08/04 05:49:57;;;;;;;3.75;2.80;;;;;;;;;;5010396;28;20124;-69
2022/08/04 05:52:24;;;;;;;6.65;3.28;;;;;;;;;;4993035;28;20373;-69
2022/08/04 05:54:51;;;;;;;4.53;3.17;;;;;;;;;;5010651;28;20164;-69
2022/08/04 05:57:17;;;;;;;6.00;2.70;;;;;;;;;;5010564;28;20034;-69
2022/08/04 05:59:45;;;;;;;5.40;2.88;;;;;;;;;;5010701;28;20030;-69
2022/08/04 06:02:13;;;;;;;6.18;3.30;;;;;;;;;;5010434;28;20395;-69
2022/08/04 06:04:40;;;;;;;8.43;3.10;;;;;;;;;;5010344;28;20116;-70
2022/08/04 06:07:07;;;;;;;6.15;3.20;;;;;;;;;;5012580;28;20548;-70
2022/08/04 06:09:32;;;;;;;5.00;3.00;;;;;;;;;;5019351;28;20040;-69
2022/08/04 06:12:00;;;;;;;7.20;2.90;;;;;;;;;;5029658;28;20029;-70
2022/08/04 06:14:28;;;;;;;10.73;3.33;;;;;;;;;;5024438;28;20033;-70
2022/08/04 06:16:54;;;;;;;8.40;3.00;;;;;;;;;;5029381;28;20029;-70
2022/08/04 06:19:23;;;;;;;5.78;2.80;;;;;;;;;;5029947;28;20323;-70
2022/08/04 06:21:51;;;;;;;6.50;2.83;;;;;;;;;;5016060;28;20225;-69
2022/08/04 06:24:23;;;;;;;6.05;3.17;;;;;;;;;;5037975;28;20055;-69
2022/08/04 06:26:48;;;;;;;;;;;;;;;;;;5035252;28;20033;-69
2022/08/04 06:29:37;;;;;;;5.43;2.45;;;;;;;;;;5027165;28;19917;-69
2022/08/04 06:32:46;;;;;;;5.20;2.97;;;;;;;;;;5022416;28;20425;-69
2022/08/04 06:35:05;;;;;;;5.50;2.35;;;;;;;;;;5024013;28;20060;-70
2022/08/04 06:37:31;;;;;;;3.00;2.60;;;;;;;;;;5029096;28;20022;-69
2022/08/04 06:39:57;;;;;;;5.18;2.80;;;;;;;;;;5029041;28;20017;-69
2022/08/04 06:42:24;;;;;;;3.28;2.22;;;;;;;;;;5028795;28;20040;-69
2022/08/04 06:44:53;;;;;;;6.07;3.00;;;;;;;;;;5025916;28;20251;-69
2022/08/04 06:47:20;;;;;;;4.25;2.90;;;;;;;;;;5029343;28;20061;-69
2022/08/04 06:49:52;;;;;;;4.63;2.53;;;;;;;;;;5021820;28;20038;-69
2022/08/04 06:52:18;;;;;;;4.57;2.13;;;;;;;;;;5025754;28;20029;-69
2022/08/04 06:54:49;;;;;;;4.15;2.70;;;;;;;;;;5029119;28;20111;-69
2022/08/04 06:57:17;;;;;;;4.20;2.35;;;;;;;;;;5022900;28;20032;-69
2022/08/04 06:59:44;;;;;;;5.65;2.65;;;;;;;;;;5028369;28;20373;-69
2022/08/04 07:02:15;;;;;;;8.68;2.35;;;;;;;;;;5026397;28;20061;-69
2022/08/04 07:04:45;;;;;;;8.43;2.75;;;;;;;;;;5029184;28;20037;-69
2022/08/04 07:07:11;;;;;;;4.53;2.75;;;;;;;;;;5028866;28;20033;-69
2022/08/04 07:09:38;;;;;;;13.60;3.20;;;;;;;;;;5028174;28;20032;-69
2022/08/04 07:12:04;;;;;;;11.48;2.70;;;;;;;;;;5028479;28;20494;-69
2022/08/04 07:14:34;;;;;;;14.65;3.20;;;;;;;;;;5029132;28;20037;-69
2022/08/04 07:17:04;;;;;;;11.02;3.08;;;;;;;;;;5022189;28;20033;-68
2022/08/04 07:19:31;;;;;;;9.25;3.17;;;;;;;;;;5026679;28;20083;-68
2022/08/04 07:21:59;;;;;;;9.82;3.08;;;;;;;;;;5026297;28;20095;-68
2022/08/04 07:24:31;;;;;;;10.23;2.80;;;;;;;;;;5028374;28;20022;-69
2022/08/04 07:26:56;;;;;;;8.60;2.63;;;;;;;;;;5022694;28;20079;-69
2022/08/04 07:29:22;;;;;;;14.65;3.25;;;;;;;;;;5027174;28;20037;-69
2022/08/04 07:31:48;;;;;;;15.90;3.10;;;;;;;;;;5028142;28;20584;-69
2022/08/04 07:34:14;;;;;;;16.73;3.20;;;;;;;;;;5028578;28;20048;-69
2022/08/04 07:36:39;;;;;;;12.02;3.30;;;;;;;;;;5027657;28;20045;-68
2022/08/04 07:39:05;;;;;;;11.15;3.22;;;;;;;;;;5025187;28;20029;-68
2022/08/04 07:41:30;;;;;;;11.02;3.00;;;;;;;;;;5021015;28;20035;-68
2022/08/04 07:43:56;;;;;;;6.88;2.78;;;;;;;;;;5021646;28;20499;-69
2022/08/04 07:46:23;;;;;;;10.15;2.60;;;;;;;;;;5023697;28;20285;-69
2022/08/04 07:48:48;;;;;;;8.80;3.00;;;;;;;;;;5024863;28;20454;-69
2022/08/04 07:51:15;;;;;;;15.40;2.70;;;;;;;;;;5021774;28;20032;-69
2022/08/04 07:53:41;;;;;;;7.55;2.50;;;;;;;;;;5010743;28;20044;-69
2022/08/04 07:56:07;;;;;;;8.70;2.75;;;;;;;;;;5024692;28;20368;-69
2022/08/04 07:58:33;;;;;;;3.50;2.13;;;;;;;;;;5023562;28;20075;-69
2022/08/04 08:00:58;;;;;;;6.43;2.30;;;;;;;;;;5022719;28;20537;-69
2022/08/04 08:03:26;;;;;;;2.42;2.22;;;;;;;;;;5021457;28;20522;-69
2022/08/04 08:05:51;;;;;;;5.15;2.13;;;;;;;;;;5021717;28;20026;-69
2022/08/04 08:08:19;;;;;;;7.60;2.35;;;;;;;;;;5023535;28;20454;-70
2022/08/04 08:10:47;;;;;;;5.28;2.00;;;;;;;;;;5024507;28;20034;-69
2022/08/04 08:13:13;;;;;;;6.82;2.30;;;;;;;;;;5024192;28;20048;-69
2022/08/04 08:15:40;;;;;;;5.65;2.10;;;;;;;;;;5024985;28;20033;-70
2022/08/04 08:18:05;;;;;;;2.80;1.77;;;;;;;;;;5018715;28;20101;-70
2022/08/04 08:20:31;;;;;;;3.92;1.70;;;;;;;;;;5024273;28;20132;-70
2022/08/04 08:22:59;;;;;;;3.65;1.90;;;;;;;;;;5024318;28;20033;-70
2022/08/04 08:25:25;;;;;;;4.35;2.20;;;;;;;;;;5023557;28;20021;-70
2022/08/04 08:27:50;;;;;;;6.30;2.03;;;;;;;;;;5022510;28;20120;-70
2022/08/04 08:30:15;;;;;;;5.35;1.70;;;;;;;;;;5024757;28;20063;-70
2022/08/04 08:32:41;;;;;;;7.07;1.90;;;;;;;;;;5022298;28;20414;-70
2022/08/04 08:35:06;;;;;;;1.60;1.50;;;;;;;;;;5024040;28;20033;-71
2022/08/04 08:37:39;;;;;;;6.95;1.83;;;;;;;;;;5018596;28;20025;-70
2022/08/04 08:40:29;;;;;;;7.80;1.80;;;;;;;;;;5024204;28;20117;-70
2022/08/04 08:43:04;;;;;;;3.85;1.73;;;;;;;;;;5024823;28;20025;-70
2022/08/04 08:45:55;;;;;;;7.93;1.83;;;;;;;;;;5022122;28;20032;-70
2022/08/04 08:48:57;;;;;;;4.63;1.70;;;;;;;;;;5024890;28;20033;-70
2022/08/04 08:51:42;;;;;;;5.15;1.90;;;;;;;;;;5016833;28;20476;-70
2022/08/04 08:54:20;;;;;;;6.18;1.75;;;;;;;;;;5025304;28;20037;-70
2022/08/04 08:57:13;;;;;;;4.18;1.70;;;;;;;;;;5024598;28;20491;-70
2022/08/04 08:59:47;;;;;;;3.60;1.58;;;;;;;;;;5026316;28;20108;-71
2022/08/04 09:02:50;;;;;;;3.80;1.45;;;;;;;;;;5026539;28;20025;-71
2022/08/04 09:05:33;;;;;;;2.38;1.42;;;;;;;;;;5025648;28;20490;-70
2022/08/04 09:08:39;;;;;;;2.28;1.52;;;;;;;;;;5027625;28;20029;-71
2022/08/04 09:11:14;;;;;;;2.38;1.50;;;;;;;;;;5027641;28;20056;-70
2022/08/04 09:13:48;;;;;;;3.15;1.50;;;;;;;;;;5028242;28;20962;-70
2022/08/04 09:16:23;;;;;;;6.65;1.50;;;;;;;;;;5028076;28;20367;-71
2022/08/04 09:19:22;;;;;;;4.78;1.60;;;;;;;;;;5025295;28;20104;-70
2022/08/04 09:21:59;;;;;;;2.90;1.38;;;;;;;;;;5020690;28;20132;-70
2022/08/04 09:24:41;;;;;;;2.72;1.77;;;;;;;;;;5026492;28;20084;-71
2022/08/04 09:27:18;;;;;;;3.63;1.40;;;;;;;;;;5027018;28;20041;-70
2022/08/04 09:30:00;;;;;;;3.97;1.63;;;;;;;;;;5027160;28;20052;-69
2022/08/04 09:32:38;;;;;;;2.88;1.52;;;;;;;;;;5024740;28;20514;-70
2022/08/04 09:35:30;;;;;;;3.45;1.40;;;;;;;;;;5026948;28;20037;-69
2022/08/04 09:38:17;;;;;;;7.22;1.70;;;;;;;;;;5019132;28;20029;-69
2022/08/04 09:41:02;;;;;;;6.10;1.92;;;;;;;;;;5018288;28;20060;-69
2022/08/04 09:43:46;;;;;;;5.38;1.90;;;;;;;;;;5026819;28;20014;-68
2022/08/04 09:46:43;;;;;;;4.50;1.90;;;;;;;;;;5008792;28;20025;-69
2022/08/04 09:49:20;;;;;;;3.47;1.55;;;;;;;;;;5027909;28;20068;-69
2022/08/04 09:51:54;;;;;;;3.47;1.60;;;;;;;;;;5024277;28;20037;-70
2022/08/04 09:54:38;;;;;;;4.10;1.60;;;;;;;;;;5026408;28;20732;-69
2022/08/04 09:57:15;;;;;;;3.97;1.60;;;;;;;;;;5019161;28;20022;-70
2022/08/04 09:59:57;;;;;;;2.97;1.75;;;;;;;;;;5022529;28;20037;-69
2022/08/04 10:02:24;;;;;;;4.28;2.55;;;;;;;;;;5027425;28;20112;-69
2022/08/04 10:04:53;;;;;;;4.95;1.48;;;;;;;;;;5021493;28;20025;-69
2022/08/04 10:07:55;;;;;;;3.67;1.50;;;;;;;;;;5020782;28;20212;-68
2022/08/04 10:10:38;;;;;;;2.30;1.60;;;;;;;;;;5026578;28;20030;-69
2022/08/04 10:13:12;;;;;;;3.22;2.13;;;;;;;;;;5026796;28;20042;-68
2022/08/04 10:16:02;;;;;;;3.58;1.80;;;;;;;;;;5024967;28;20487;-69
2022/08/04 10:18:58;;;;;;;4.28;1.63;;;;;;;;;;5026621;28;20036;-68
2022/08/04 10:21:41;;;;;;;4.00;1.60;;;;;;;;;;5026414;28;20026;-69
2022/08/04 10:24:38;;;;;;;2.55;1.50;;;;;;;;;;5026629;28;20106;-69
2022/08/04 10:27:24;;;;;;;3.65;1.50;;;;;;;;;;5026545;28;20026;-68
2022/08/04 10:29:55;;;;;;;3.28;1.60;;;;;;;;;;5021236;28;20486;-69
2022/08/04 10:32:27;;;;;;;6.15;1.70;;;;;;;;;;5026502;28;20059;-68
2022/08/04 10:35:09;;;;;;;4.20;1.42;;;;;;;;;;5026071;28;20091;-69
2022/08/04 10:37:38;;;;;;;2.35;1.48;;;;;;;;;;5026709;28;20041;-69
2022/08/04 10:43:31;;;;;;;2.55;1.50;;;;;;;;;;5026927;28;20087;-69
2022/08/04 10:46:04;;;;;;;4.97;1.20;;;;;;;;;;5025630;28;20026;-69
2022/08/04 10:48:54;;;;;;;3.10;1.10;;;;;;;;;;5025238;28;20041;-69
2022/08/04 10:51:43;;;;;;;1.80;1.13;;;;;;;;;;5018441;28;20578;-68
2022/08/04 10:54:53;;;;;;;1.75;1.00;;;;;;;;;;5025624;28;20300;-69
2022/08/04 10:57:24;;;;;;;1.52;1.33;;;;;;;;;;5010061;28;20037;-69
2022/08/04 11:00:15;;;;;;;1.38;1.20;;;;;;;;;;5025687;28;20033;-69
2022/08/04 11:03:08;;;;;;;4.05;1.27;;;;;;;;;;5026266;28;20037;-68
2022/08/04 11:05:46;;;;;;;1.42;1.30;;;;;;;;;;5026369;28;20033;-68
2022/08/04 11:08:19;;;;;;;2.28;1.00;;;;;;;;;;5026345;28;20021;-69
2022/08/04 11:11:12;;;;;;;2.75;1.10;;;;;;;;;;5025459;28;20458;-68
2022/08/04 11:13:52;;;;;;;1.88;1.00;;;;;;;;;;5026131;28;20029;-71
2022/08/04 11:16:51;;;;;;;3.50;1.13;;;;;;;;;;5025471;28;20065;-69
2022/08/04 11:19:41;;;;;;;2.88;0.93;;;;;;;;;;5023532;28;20021;-68
2022/08/04 11:22:25;;;;;;;2.90;0.90;;;;;;;;;;5024901;28;20056;-71
2022/08/04 11:25:13;;;;;;;2.35;1.13;;;;;;;;;;5024972;28;20259;-68
2022/08/04 11:28:20;;;;;;;1.75;1.10;;;;;;;;;;5025593;28;20515;-68
2022/08/04 11:30:52;;;;;;;1.27;1.17;;;;;;;;;;4987093;28;20127;-69
2022/08/04 11:33:27;;;;;;;1.42;1.20;;;;;;;;;;5024760;28;20036;-69
2022/08/04 11:36:19;;;;;;;1.23;1.10;;;;;;;;;;5024649;28;20498;-69
2022/08/04 11:38:54;;;;;;;2.78;1.10;;;;;;;;;;5025680;28;20025;-68
2022/08/04 11:41:35;;;;;;;3.30;1.00;;;;;;;;;;5025223;28;20465;-69
2022/08/04 11:44:03;;;;;;;1.52;1.27;;;;;;;;;;5025735;28;20136;-67
2022/08/04 11:46:41;;;;;;;2.50;1.40;;;;;;;;;;5025166;28;20112;-67
2022/08/04 11:49:14;;;;;;;1.75;1.20;;;;;;;;;;5024761;28;20499;-68
2022/08/04 11:51:41;;;;;;;1.92;1.05;;;;;;;;;;5024531;28;20113;-69
2022/08/04 11:54:06;;;;;;;2.95;1.30;;;;;;;;;;5025320;28;20111;-72
2022/08/04 11:56:32;;;;;;;1.52;1.25;;;;;;;;;;5024965;28;20395;-68
2022/08/04 11:58:58;;;;;;;2.05;1.05;;;;;;;;;;5025878;28;20100;-69
2022/08/04 12:01:26;;;;;;;1.33;1.17;;;;;;;;;;5024694;28;20680;-68
2022/08/04 12:04:17;;;;;;;3.15;1.30;;;;;;;;;;5021435;28;20029;-68
2022/08/04 12:06:58;;;;;;;;;;;;;;;;;;5017276;28;20033;-68
2022/08/04 12:09:25;;;;;;;;;;;;;;;;;;5020344;28;19913;-67
2022/08/04 12:12:19;;;;;;;1.42;1.10;;;;;;;;;;5019068;28;20426;-69
2022/08/04 12:15:09;;;;;;;2.05;1.10;;;;;;;;;;5017298;28;20039;-68
2022/08/04 12:17:41;;;;;;;1.40;1.30;;;;;;;;;;5016995;28;20052;-70
2022/08/04 12:20:09;;;;;;;2.08;1.23;;;;;;;;;;5016341;28;20109;-70
2022/08/04 12:22:39;;;;;;;1.50;1.13;;;;;;;;;;5013464;28;20023;-68
2022/08/04 12:25:07;;;;;;;2.17;1.13;;;;;;;;;;5015275;28;20231;-68
2022/08/04 12:27:46;;;;;;;1.35;1.10;;;;;;;;;;5009914;28;20443;-69
2022/08/04 12:30:13;;;;;;;1.27;1.05;;;;;;;;;;5009282;28;20033;-69
2022/08/04 12:32:44;;;;;;;9.85;1.77;;;;;;;;;;5011858;28;20415;-71
2022/08/04 12:35:25;;;;;;;3.15;1.02;;;;;;;;;;5021345;28;20112;-72
2022/08/04 12:38:01;;;;;;;2.50;1.10;;;;;;;;;;5025382;28;20518;-67
2022/08/04 12:40:32;;;;;;;1.20;1.10;;;;;;;;;;5021138;28;20057;-67
2022/08/04 12:43:09;;;;;;;1.20;1.10;;;;;;;;;;5014956;28;20034;-68
2022/08/04 12:45:35;;;;;;;2.60;0.90;;;;;;;;;;5016288;28;20462;-70
2022/08/04 12:48:04;;;;;;;1.77;1.00;;;;;;;;;;5022093;28;20104;-68
2022/08/04 12:50:31;;;;;;;1.50;1.15;;;;;;;;;;5018961;28;20027;-68
2022/08/04 12:52:57;;;;;;;3.45;1.10;;;;;;;;;;5021656;28;20111;-66
2022/08/04 12:55:29;;;;;;;2.38;1.00;;;;;;;;;;5026642;28;20029;-68
2022/08/04 12:57:55;;;;;;;1.40;1.10;;;;;;;;;;5024891;28;20201;-67
2022/08/04 13:00:25;;;;;;;1.63;1.10;;;;;;;;;;5020743;28;20285;-70
2022/08/04 13:02:53;;;;;;;1.40;1.30;;;;;;;;;;5017032;28;20406;-72
2022/08/04 13:05:20;;;;;;;1.42;1.20;;;;;;;;;;5023342;28;20025;-69
2022/08/04 13:07:49;;;;;;;1.63;1.20;;;;;;;;;;5022801;28;20021;-69
2022/08/04 13:10:18;;;;;;;1.45;1.35;;;;;;;;;;5024215;28;20414;-70
2022/08/04 13:12:53;;;;;;;1.52;1.33;;;;;;;;;;5018733;28;20026;-70
2022/08/04 13:15:24;;;;;;;3.40;1.30;;;;;;;;;;5022886;28;20151;-69
2022/08/04 13:17:54;;;;;;;1.80;1.00;;;;;;;;;;5023627;28;20563;-69
2022/08/04 13:20:25;;;;;;;1.33;1.13;;;;;;;;;;5024538;28;20353;-71
2022/08/04 13:22:50;;;;;;;4.30;1.60;;;;;;;;;;5018917;28;20461;-68
2022/08/04 13:25:16;;;;;;;2.25;1.30;;;;;;;;;;5006609;28;20026;-73
2022/08/04 13:27:45;;;;;;;2.40;1.15;;;;;;;;;;5019955;28;20042;-74
2022/08/04 13:30:12;;;;;;;1.70;1.15;;;;;;;;;;5024064;28;20595;-69
2022/08/04 13:32:37;;;;;;;1.23;1.13;;;;;;;;;;5024104;28;20437;-70
2022/08/04 13:35:06;;;;;;;2.08;1.25;;;;;;;;;;5023118;28;20033;-70
2022/08/04 13:37:38;;;;;;;1.48;1.20;;;;;;;;;;5011886;28;20651;-69
2022/08/04 13:40:03;;;;;;;;;;;;;;;;;;5018740;28;20450;-73
2022/08/04 13:42:32;;;;;;;1.50;1.30;;;;;;;;;;5022606;28;19917;-68
2022/08/04 13:44:59;;;;;;;2.05;1.30;;;;;;;;;;5022994;28;20134;-68
2022/08/04 13:47:30;;;;;;;3.63;1.35;;;;;;;;;;5022756;28;20032;-69
2022/08/04 13:50:09;;;;;;;1.50;1.30;;;;;;;;;;5020477;28;20042;-71
2022/08/04 13:52:35;;;;;;;1.75;1.38;;;;;;;;;;5014961;28;20044;-71
2022/08/04 13:55:00;;;;;;;1.67;1.55;;;;;;;;;;5020329;28;20017;-68
2022/08/04 13:57:31;;;;;;;1.38;1.23;;;;;;;;;;5022200;28;20033;-67
2022/08/04 14:00:01;;;;;;;1.30;1.17;;;;;;;;;;5015586;28;20125;-74
2022/08/04 14:02:37;;;;;;;2.80;1.25;;;;;;;;;;5007509;28;20026;-69
2022/08/04 14:05:08;;;;;;;1.30;1.20;;;;;;;;;;5018942;28;20250;-67
2022/08/04 14:07:44;;;;;;;1.20;1.10;;;;;;;;;;5011460;28;20314;-68
2022/08/04 14:10:11;;;;;;;1.27;1.10;;;;;;;;;;5019445;28;20512;-69
2022/08/04 14:12:43;;;;;;;2.08;1.10;;;;;;;;;;5017316;28;20037;-69
2022/08/04 14:15:36;;;;;;;1.63;1.08;;;;;;;;;;5014410;28;20040;-68
2022/08/04 14:18:22;;;;;;;1.73;1.20;;;;;;;;;;5018295;28;20538;-68
2022/08/04 14:21:04;;;;;;;1.30;1.20;;;;;;;;;;5013786;28;20036;-68
2022/08/04 14:23:42;;;;;;;2.30;1.25;;;;;;;;;;5018935;28;20485;-70
2022/08/04 14:26:17;;;;;;;1.30;1.20;;;;;;;;;;5023149;28;20025;-69
2022/08/04 14:28:42;;;;;;;1.50;1.10;;;;;;;;;;5023914;28;20112;-68
2022/08/04 14:31:13;;;;;;;1.30;1.20;;;;;;;;;;5021319;28;20128;-70
2022/08/04 14:33:40;;;;;;;2.40;1.10;;;;;;;;;;5020561;28;20290;-68
2022/08/04 14:36:07;;;;;;;1.58;1.40;;;;;;;;;;5014443;28;20029;-70
2022/08/04 14:38:49;;;;;;;2.03;1.00;;;;;;;;;;5009753;28;20033;-68
2022/08/04 14:41:17;;;;;;;1.45;1.30;;;;;;;;;;5012581;28;20168;-69
2022/08/04 14:43:45;;;;;;;2.00;1.20;;;;;;;;;;5020403;28;20479;-70
2022/08/04 14:46:11;;;;;;;2.45;1.45;;;;;;;;;;5017265;28;20092;-69
2022/08/04 14:48:38;;;;;;;1.85;1.15;;;;;;;;;;5023200;28;20025;-68
2022/08/04 14:51:04;;;;;;;2.20;1.10;;;;;;;;;;5016781;28;20339;-68
2022/08/04 14:53:29;;;;;;;1.52;1.30;;;;;;;;;;5017266;28;20531;-69
2022/08/04 14:55:57;;;;;;;1.95;1.10;;;;;;;;;;5023787;28;20033;-69
2022/08/04 14:58:32;;;;;;;1.40;1.30;;;;;;;;;;5017240;28;20542;-68
2022/08/04 15:01:02;;;;;;;1.15;1.05;;;;;;;;;;5013745;28;20017;-69
2022/08/04 15:03:30;;;;;;;1.27;1.17;;;;;;;;;;5022321;28;20501;-69
2022/08/04 15:05:57;;;;;;;3.22;1.20;;;;;;;;;;5021412;28;20040;-70
2022/08/04 15:08:24;;;;;;;1.52;1.05;;;;;;;;;;5018041;28;20059;-69
2022/08/04 15:10:49;;;;;;;1.73;1.30;;;;;;;;;;5028378;28;20029;-69
2022/08/04 15:13:14;;;;;;;2.65;1.17;;;;;;;;;;5028896;28;20028;-69
2022/08/04 15:15:41;;;;;;;2.47;1.20;;;;;;;;;;5028982;28;20055;-69
2022/08/04 15:18:10;;;;;;;1.90;1.10;;;;;;;;;;5029089;28;20033;-69
2022/08/04 15:20:37;;;;;;;3.80;1.60;;;;;;;;;;5028851;28;20123;-69
2022/08/04 15:23:03;;;;;;;1.25;1.15;;;;;;;;;;5028981;28;20547;-69
2022/08/04 15:25:39;;;;;;;4.05;1.23;;;;;;;;;;5028871;28;20065;-68
2022/08/04 15:28:10;;;;;;;1.63;1.20;;;;;;;;;;5028878;28;20025;-69
2022/08/04 15:30:37;;;;;;;2.55;1.30;;;;;;;;;;5028324;28;20037;-68
2022/08/04 15:33:04;;;;;;;3.58;1.38;;;;;;;;;;5028616;28;20116;-68
2022/08/04 15:35:32;;;;;;;1.98;1.30;;;;;;;;;;5028568;28;20239;-69
2022/08/04 15:37:57;;;;;;;3.03;1.20;;;;;;;;;;5028595;28;20494;-69
2022/08/04 15:40:29;;;;;;;2.50;1.20;;;;;;;;;;5028208;28;20022;-69